Roncesvalles Navarra

latitud = 43° 00' 31''N | longitud = 001° 19' 32''W
940 metros sobre el nivel del mar | datos mensuales

Fecha, hora, temperatura, viento dirección y velocidad, humedad y presión.

  • 14-10-2018 19:00:00 | 9.10°C | Nordeste |7.00 km/h | 99.00% | 0.00 hPa
  • 14-10-2018 18:00:00 | 9.30°C | Norte |5.00 km/h | 100.00% | 0.00 hPa
  • 14-10-2018 17:00:00 | 9.60°C | Norte |9.00 km/h | 99.00% | 0.00 hPa
  • 14-10-2018 16:00:00 | 10.10°C | Norte |9.00 km/h | 97.00% | 0.00 hPa
  • 14-10-2018 15:00:00 | 10.80°C | Sudeste |3.00 km/h | 100.00% | 0.00 hPa
  • 14-10-2018 14:00:00 | 10.80°C | Sudoeste |13.00 km/h | 99.00% | 0.00 hPa
  • 14-10-2018 13:00:00 | 15.70°C | Sur |15.00 km/h | 88.00% | 0.00 hPa
  • 14-10-2018 12:00:00 | 15.70°C | Sur |13.00 km/h | 86.00% | 0.00 hPa
  • 14-10-2018 11:00:00 | 16.30°C | Sur |16.00 km/h | 80.00% | 0.00 hPa
  • 14-10-2018 10:00:00 | 15.90°C | Sur |20.00 km/h | 82.00% | 0.00 hPa
  • 14-10-2018 09:00:00 | 16.30°C | Sur |27.00 km/h | 79.00% | 0.00 hPa
  • 14-10-2018 08:00:00 | 15.70°C | Sur |16.00 km/h | 81.00% | 0.00 hPa
  • 14-10-2018 07:00:00 | 15.70°C | Sur |13.00 km/h | 82.00% | 0.00 hPa
  • 14-10-2018 06:00:00 | 15.90°C | Sur |21.00 km/h | 82.00% | 0.00 hPa
  • 14-10-2018 05:00:00 | 15.80°C | Sur |15.00 km/h | 79.00% | 0.00 hPa
  • 14-10-2018 04:00:00 | 16.10°C | Sur |18.00 km/h | 76.00% | 0.00 hPa
  • 14-10-2018 03:00:00 | 16.50°C | Sur |12.00 km/h | 73.00% | 0.00 hPa
  • 14-10-2018 02:00:00 | 17.10°C | Sur |19.00 km/h | 71.00% | 0.00 hPa
  • 14-10-2018 01:00:00 | 17.50°C | Sur |17.00 km/h | 75.00% | 0.00 hPa
  • 14-10-2018 00:00:00 | 17.00°C | Sudeste |13.00 km/h | 81.00% | 0.00 hPa
  • 13-10-2018 23:00:00 | 16.60°C | Sudeste |10.00 km/h | 82.00% | 0.00 hPa
  • 13-10-2018 22:00:00 | 17.30°C | Sur |10.00 km/h | 77.00% | 0.00 hPa
  • 13-10-2018 21:00:00 | 16.90°C | Sur |9.00 km/h | 75.00% | 0.00 hPa
  • 13-10-2018 20:00:00 | 16.80°C | Sur |4.00 km/h | 77.00% | 0.00 hPa